sensor_id;sensor_type;location;lat;lon;timestamp;pressure;altitude;pressure_sealevel;temperature;humidity
69784;BME280;57054;51.978;4.498;2022-08-05T00:00:09;101633.00;;;19.72;71.60
69784;BME280;57054;51.978;4.498;2022-08-05T00:02:36;101633.00;;;19.72;71.52
69784;BME280;57054;51.978;4.498;2022-08-05T00:05:02;101638.22;;;19.73;71.59
69784;BME280;57054;51.978;4.498;2022-08-05T00:07:28;101634.72;;;19.73;71.71
69784;BME280;57054;51.978;4.498;2022-08-05T00:09:53;101636.50;;;19.72;71.73
69784;BME280;57054;51.978;4.498;2022-08-05T00:12:18;101636.50;;;19.72;71.70
69784;BME280;57054;51.978;4.498;2022-08-05T00:14:44;101636.50;;;19.72;71.70
69784;BME280;57054;51.978;4.498;2022-08-05T00:17:09;101632.06;;;19.73;71.81
69784;BME280;57054;51.978;4.498;2022-08-05T00:19:34;101628.63;;;19.71;71.82
69784;BME280;57054;51.978;4.498;2022-08-05T00:22:01;101627.88;;;19.69;71.75
69784;BME280;57054;51.978;4.498;2022-08-05T00:24:26;101639.34;;;19.69;71.99
69784;BME280;57054;51.978;4.498;2022-08-05T00:26:52;101650.72;;;19.71;71.64
69784;BME280;57054;51.978;4.498;2022-08-05T00:29:18;101648.16;;;19.70;71.78
69784;BME280;57054;51.978;4.498;2022-08-05T00:31:43;101650.09;;;19.68;72.01
69784;BME280;57054;51.978;4.498;2022-08-05T00:34:09;101649.25;;;19.67;71.72
69784;BME280;57054;51.978;4.498;2022-08-05T00:36:34;101643.09;;;19.67;71.70
69784;BME280;57054;51.978;4.498;2022-08-05T00:39:00;101640.53;;;19.65;72.03
69784;BME280;57054;51.978;4.498;2022-08-05T00:41:27;101645.09;;;19.63;72.10
69784;BME280;57054;51.978;4.498;2022-08-05T00:43:52;101649.53;;;19.63;72.21
69784;BME280;57054;51.978;4.498;2022-08-05T00:46:18;101653.16;;;19.62;72.13
69784;BME280;57054;51.978;4.498;2022-08-05T00:48:43;101650.50;;;19.62;72.05
69784;BME280;57054;51.978;4.498;2022-08-05T00:51:09;101643.47;;;19.61;72.05
69784;BME280;57054;51.978;4.498;2022-08-05T00:53:34;101640.81;;;19.61;72.34
69784;BME280;57054;51.978;4.498;2022-08-05T00:55:59;101647.00;;;19.61;72.22
69784;BME280;57054;51.978;4.498;2022-08-05T00:58:25;101649.00;;;19.58;72.09
69784;BME280;57054;51.978;4.498;2022-08-05T01:00:50;101653.44;;;19.57;72.33
69784;BME280;57054;51.978;4.498;2022-08-05T01:03:16;101646.44;;;19.56;72.22
69784;BME280;57054;51.978;4.498;2022-08-05T01:05:41;101646.44;;;19.56;72.32
69784;BME280;57054;51.978;4.498;2022-08-05T01:08:06;101651.75;;;19.56;72.47
69784;BME280;57054;51.978;4.498;2022-08-05T01:10:51;101655.34;;;19.55;72.40
69784;BME280;57054;51.978;4.498;2022-08-05T01:13:35;101668.72;;;19.53;72.37
69784;BME280;57054;51.978;4.498;2022-08-05T01:16:04;101676.69;;;19.53;72.38
69784;BME280;57054;51.978;4.498;2022-08-05T01:18:33;101683.00;;;19.52;72.37
69784;BME280;57054;51.978;4.498;2022-08-05T01:24:08;101677.69;;;19.52;72.35
69784;BME280;57054;51.978;4.498;2022-08-05T01:29:39;101692.78;;;19.52;72.28
69784;BME280;57054;51.978;4.498;2022-08-05T01:32:08;101692.88;;;19.50;72.35
69784;BME280;57054;51.978;4.498;2022-08-05T01:34:42;101701.78;;;19.49;72.28
69784;BME280;57054;51.978;4.498;2022-08-05T01:37:15;101710.59;;;19.50;72.17
69784;BME280;57054;51.978;4.498;2022-08-05T01:39:44;101703.59;;;19.49;72.14
69784;BME280;57054;51.978;4.498;2022-08-05T01:42:12;101700.94;;;19.49;72.34
69784;BME280;57054;51.978;4.498;2022-08-05T01:44:38;101695.72;;;19.47;72.06
69784;BME280;57054;51.978;4.498;2022-08-05T01:47:05;101696.56;;;19.48;72.17
69784;BME280;57054;51.978;4.498;2022-08-05T01:49:32;101700.09;;;19.48;72.46
69784;BME280;57054;51.978;4.498;2022-08-05T01:52:01;101693.16;;;19.46;72.36
69784;BME280;57054;51.978;4.498;2022-08-05T01:54:31;101692.31;;;19.45;72.39
69784;BME280;57054;51.978;4.498;2022-08-05T01:56:57;101673.91;;;19.42;72.20
69784;BME280;57054;51.978;4.498;2022-08-05T01:59:25;101677.63;;;19.40;72.16
69784;BME280;57054;51.978;4.498;2022-08-05T02:01:53;101674.22;;;19.37;72.23
69784;BME280;57054;51.978;4.498;2022-08-05T02:04:21;101660.16;;;19.35;72.20
69784;BME280;57054;51.978;4.498;2022-08-05T02:06:47;101652.31;;;19.34;72.35
69784;BME280;57054;51.978;4.498;2022-08-05T02:09:13;101656.75;;;19.33;72.17
69784;BME280;57054;51.978;4.498;2022-08-05T02:12:05;101654.22;;;19.32;72.00
69784;BME280;57054;51.978;4.498;2022-08-05T02:14:37;101646.44;;;19.29;72.00
69784;BME280;57054;51.978;4.498;2022-08-05T02:17:13;101655.44;;;19.26;72.07
69784;BME280;57054;51.978;4.498;2022-08-05T02:19:45;101660.97;;;19.23;72.33
69784;BME280;57054;51.978;4.498;2022-08-05T02:22:18;101652.34;;;19.20;72.53
69784;BME280;57054;51.978;4.498;2022-08-05T02:24:49;101649.78;;;19.18;72.63
69784;BME280;57054;51.978;4.498;2022-08-05T02:27:17;101654.34;;;19.16;72.59
69784;BME280;57054;51.978;4.498;2022-08-05T02:29:45;101649.22;;;19.13;72.54
69784;BME280;57054;51.978;4.498;2022-08-05T02:32:12;101652.84;;;19.12;72.79
69784;BME280;57054;51.978;4.498;2022-08-05T02:34:40;101651.13;;;19.11;72.50
69784;BME280;57054;51.978;4.498;2022-08-05T02:37:07;101651.31;;;19.08;73.06
69784;BME280;57054;51.978;4.498;2022-08-05T02:39:37;101645.34;;;19.04;73.18
69784;BME280;57054;51.978;4.498;2022-08-05T02:42:04;101647.91;;;19.06;73.09
69784;BME280;57054;51.978;4.498;2022-08-05T02:44:33;101642.59;;;19.06;73.06
69784;BME280;57054;51.978;4.498;2022-08-05T02:47:01;101646.22;;;19.05;72.92
69784;BME280;57054;51.978;4.498;2022-08-05T02:49:30;101653.22;;;19.06;73.06
69784;BME280;57054;51.978;4.498;2022-08-05T02:51:57;101650.56;;;19.06;72.95
69784;BME280;57054;51.978;4.498;2022-08-05T02:54:23;101647.91;;;19.06;73.20
69784;BME280;57054;51.978;4.498;2022-08-05T02:56:49;101655.78;;;19.07;73.25
69784;BME280;57054;51.978;4.498;2022-08-05T02:59:16;101661.94;;;19.08;73.10
69784;BME280;57054;51.978;4.498;2022-08-05T03:01:43;101664.69;;;19.06;73.15
69784;BME280;57054;51.978;4.498;2022-08-05T03:04:12;101669.16;;;19.06;73.13
69784;BME280;57054;51.978;4.498;2022-08-05T03:06:39;101661.28;;;19.04;73.13
69784;BME280;57054;51.978;4.498;2022-08-05T03:09:05;101680.81;;;19.03;73.08
69784;BME280;57054;51.978;4.498;2022-08-05T03:11:31;101681.66;;;19.04;73.24
69784;BME280;57054;51.978;4.498;2022-08-05T03:13:56;101676.44;;;19.02;73.19
69784;BME280;57054;51.978;4.498;2022-08-05T03:16:22;101678.16;;;19.03;72.98
69784;BME280;57054;51.978;4.498;2022-08-05T03:18:47;101675.50;;;19.03;72.97
69784;BME280;57054;51.978;4.498;2022-08-05T03:21:13;101679.09;;;19.02;72.87
69784;BME280;57054;51.978;4.498;2022-08-05T03:23:40;101672.94;;;19.02;72.73
69784;BME280;57054;51.978;4.498;2022-08-05T03:26:07;101674.84;;;18.99;72.75
69784;BME280;57054;51.978;4.498;2022-08-05T03:28:32;101675.88;;;18.97;72.74
69784;BME280;57054;51.978;4.498;2022-08-05T03:31:02;101674.19;;;18.96;72.92
69784;BME280;57054;51.978;4.498;2022-08-05T03:33:29;101675.03;;;18.96;72.77
69784;BME280;57054;51.978;4.498;2022-08-05T03:35:56;101682.16;;;18.96;72.45
69784;BME280;57054;51.978;4.498;2022-08-05T03:38:23;101683.09;;;18.95;72.42
69784;BME280;57054;51.978;4.498;2022-08-05T03:40:49;101688.41;;;18.95;72.20
69784;BME280;57054;51.978;4.498;2022-08-05T03:43:15;101690.31;;;18.93;72.30
69784;BME280;57054;51.978;4.498;2022-08-05T03:45:42;101695.69;;;18.91;72.25
69784;BME280;57054;51.978;4.498;2022-08-05T03:48:07;101684.34;;;18.89;72.31
69784;BME280;57054;51.978;4.498;2022-08-05T03:50:57;101679.03;;;18.89;72.21
69784;BME280;57054;51.978;4.498;2022-08-05T03:53:32;101677.34;;;18.88;72.29
69784;BME280;57054;51.978;4.498;2022-08-05T03:56:24;101681.00;;;18.86;72.27
69784;BME280;57054;51.978;4.498;2022-08-05T03:58:52;101686.31;;;18.86;72.12
69784;BME280;57054;51.978;4.498;2022-08-05T04:01:19;101696.09;;;18.85;72.15
69784;BME280;57054;51.978;4.498;2022-08-05T04:03:48;101693.44;;;18.85;72.20
69784;BME280;57054;51.978;4.498;2022-08-05T04:06:16;101687.28;;;18.85;72.14
69784;BME280;57054;51.978;4.498;2022-08-05T04:08:42;101682.91;;;18.84;72.05
69784;BME280;57054;51.978;4.498;2022-08-05T04:11:08;101683.00;;;18.82;72.28
69784;BME280;57054;51.978;4.498;2022-08-05T04:13:38;101673.34;;;18.81;72.30
69784;BME280;57054;51.978;4.498;2022-08-05T04:16:06;101679.56;;;18.80;72.14
69784;BME280;57054;51.978;4.498;2022-08-05T04:18:31;101678.72;;;18.79;72.43
69784;BME280;57054;51.978;4.498;2022-08-05T04:20:57;101677.00;;;18.78;72.16
69784;BME280;57054;51.978;4.498;2022-08-05T04:23:25;101674.44;;;18.77;72.07
69784;BME280;57054;51.978;4.498;2022-08-05T04:25:52;101675.41;;;18.76;72.37
69784;BME280;57054;51.978;4.498;2022-08-05T04:28:18;101678.06;;;18.76;72.09
69784;BME280;57054;51.978;4.498;2022-08-05T04:30:44;101682.63;;;18.74;72.17
69784;BME280;57054;51.978;4.498;2022-08-05T04:33:10;101680.06;;;18.72;72.16
69784;BME280;57054;51.978;4.498;2022-08-05T04:35:36;101678.41;;;18.70;72.26
69784;BME280;57054;51.978;4.498;2022-08-05T04:38:02;101675.88;;;18.68;72.26
69784;BME280;57054;51.978;4.498;2022-08-05T04:40:27;101675.97;;;18.67;72.14
69784;BME280;57054;51.978;4.498;2022-08-05T04:42:52;101674.25;;;18.66;72.00
69784;BME280;57054;51.978;4.498;2022-08-05T04:45:18;101672.56;;;18.65;72.29
69784;BME280;57054;51.978;4.498;2022-08-05T04:47:43;101674.34;;;18.64;72.24
69784;BME280;57054;51.978;4.498;2022-08-05T04:50:09;101677.97;;;18.63;72.03
69784;BME280;57054;51.978;4.498;2022-08-05T04:52:34;101675.41;;;18.61;72.13
69784;BME280;57054;51.978;4.498;2022-08-05T04:55:00;101672.84;;;18.60;72.17
69784;BME280;57054;51.978;4.498;2022-08-05T04:57:25;101667.63;;;18.58;72.18
69784;BME280;57054;51.978;4.498;2022-08-05T04:59:50;101669.44;;;18.58;72.17
69784;BME280;57054;51.978;4.498;2022-08-05T05:02:16;101667.72;;;18.57;72.11
69784;BME280;57054;51.978;4.498;2022-08-05T05:04:41;101669.53;;;18.56;72.08
69784;BME280;57054;51.978;4.498;2022-08-05T05:07:07;101678.41;;;18.55;72.19
69784;BME280;57054;51.978;4.498;2022-08-05T05:09:32;101677.56;;;18.55;71.70
69784;BME280;57054;51.978;4.498;2022-08-05T05:11:58;101678.53;;;18.54;72.01
69784;BME280;57054;51.978;4.498;2022-08-05T05:14:23;101677.66;;;18.53;71.97
69784;BME280;57054;51.978;4.498;2022-08-05T05:16:49;101680.41;;;18.52;72.22
69784;BME280;57054;51.978;4.498;2022-08-05T05:19:14;101686.75;;;18.49;72.13
69784;BME280;57054;51.978;4.498;2022-08-05T05:21:39;101682.41;;;18.48;72.02
69784;BME280;57054;51.978;4.498;2022-08-05T05:24:05;101686.84;;;18.48;72.33
69784;BME280;57054;51.978;4.498;2022-08-05T05:26:33;101696.69;;;18.46;72.14
69784;BME280;57054;51.978;4.498;2022-08-05T05:28:59;101688.75;;;18.46;71.91
69784;BME280;57054;51.978;4.498;2022-08-05T05:31:24;101693.19;;;18.45;72.05
69784;BME280;57054;51.978;4.498;2022-08-05T05:33:50;101694.22;;;18.42;72.17
69784;BME280;57054;51.978;4.498;2022-08-05T05:36:15;101697.84;;;18.41;72.14
69784;BME280;57054;51.978;4.498;2022-08-05T05:38:40;101690.91;;;18.39;72.19
69784;BME280;57054;51.978;4.498;2022-08-05T05:41:06;101697.16;;;18.38;72.38
69784;BME280;57054;51.978;4.498;2022-08-05T05:43:31;101696.41;;;18.36;72.09
69784;BME280;57054;51.978;4.498;2022-08-05T05:45:56;101695.66;;;18.34;72.18
69784;BME280;57054;51.978;4.498;2022-08-05T05:48:22;101692.13;;;18.33;71.98
69784;BME280;57054;51.978;4.498;2022-08-05T05:50:47;101703.59;;;18.34;71.65
69784;BME280;57054;51.978;4.498;2022-08-05T05:53:14;101707.28;;;18.31;71.59
69784;BME280;57054;51.978;4.498;2022-08-05T05:55:40;101718.72;;;18.32;71.57
69784;BME280;57054;51.978;4.498;2022-08-05T05:58:05;101719.59;;;18.32;71.83
69784;BME280;57054;51.978;4.498;2022-08-05T06:00:30;101715.22;;;18.31;71.85
69784;BME280;57054;51.978;4.498;2022-08-05T06:02:56;101717.97;;;18.30;71.70
69784;BME280;57054;51.978;4.498;2022-08-05T06:05:21;101728.56;;;18.30;71.69
69784;BME280;57054;51.978;4.498;2022-08-05T06:07:47;101722.41;;;18.29;71.48
69784;BME280;57054;51.978;4.498;2022-08-05T06:10:14;101714.47;;;18.29;71.50
69784;BME280;57054;51.978;4.498;2022-08-05T06:12:39;101713.63;;;18.29;71.41
69784;BME280;57054;51.978;4.498;2022-08-05T06:15:06;101722.50;;;18.28;71.37
69784;BME280;57054;51.978;4.498;2022-08-05T06:17:31;101726.97;;;18.27;71.35
69784;BME280;57054;51.978;4.498;2022-08-05T06:19:57;101725.16;;;18.28;71.14
69784;BME280;57054;51.978;4.498;2022-08-05T06:22:24;101729.53;;;18.29;71.26
69784;BME280;57054;51.978;4.498;2022-08-05T06:24:50;101735.69;;;18.29;71.09
69784;BME280;57054;51.978;4.498;2022-08-05T06:27:16;101728.56;;;18.30;71.10
69784;BME280;57054;51.978;4.498;2022-08-05T06:29:41;101732.09;;;18.30;70.83
69784;BME280;57054;51.978;4.498;2022-08-05T06:32:08;101737.47;;;18.29;71.05
69784;BME280;57054;51.978;4.498;2022-08-05T06:34:33;101734.75;;;18.30;70.96
69784;BME280;57054;51.978;4.498;2022-08-05T06:36:58;101739.84;;;18.33;71.19
69784;BME280;57054;51.978;4.498;2022-08-05T06:39:24;101735.50;;;18.32;71.10
69784;BME280;57054;51.978;4.498;2022-08-05T06:41:50;101739.84;;;18.33;70.89
69784;BME280;57054;51.978;4.498;2022-08-05T06:44:15;101740.72;;;18.34;71.11
69784;BME280;57054;51.978;4.498;2022-08-05T06:46:41;101740.72;;;18.34;70.71
69784;BME280;57054;51.978;4.498;2022-08-05T06:49:06;101738.91;;;18.34;70.95
69784;BME280;57054;51.978;4.498;2022-08-05T06:51:31;101742.41;;;18.35;70.92
69784;BME280;57054;51.978;4.498;2022-08-05T06:53:58;101739.75;;;18.35;70.56
69784;BME280;57054;51.978;4.498;2022-08-05T06:56:24;101753.78;;;18.37;70.80
69784;BME280;57054;51.978;4.498;2022-08-05T06:58:50;101750.19;;;18.38;70.67
69784;BME280;57054;51.978;4.498;2022-08-05T07:01:15;101747.53;;;18.38;70.50
69784;BME280;57054;51.978;4.498;2022-08-05T07:03:41;101756.25;;;18.40;70.14
69784;BME280;57054;51.978;4.498;2022-08-05T07:06:08;101757.97;;;18.41;70.17
69784;BME280;57054;51.978;4.498;2022-08-05T07:08:34;101759.66;;;18.42;69.95
69784;BME280;57054;51.978;4.498;2022-08-05T07:10:59;101763.16;;;18.42;69.73
69784;BME280;57054;51.978;4.498;2022-08-05T07:13:25;101764.03;;;18.43;69.25
69784;BME280;57054;51.978;4.498;2022-08-05T07:16:09;101765.72;;;18.44;68.70
69784;BME280;57054;51.978;4.498;2022-08-05T07:18:53;101769.16;;;18.46;68.90
69784;BME280;57054;51.978;4.498;2022-08-05T07:21:18;101768.97;;;18.49;68.81
69784;BME280;57054;51.978;4.498;2022-08-05T07:23:43;101776.75;;;18.52;68.46
69784;BME280;57054;51.978;4.498;2022-08-05T07:26:09;101777.59;;;18.53;67.82
69784;BME280;57054;51.978;4.498;2022-08-05T07:28:35;101781.09;;;18.53;67.06
69784;BME280;57054;51.978;4.498;2022-08-05T07:31:00;101790.78;;;18.54;67.16
69784;BME280;57054;51.978;4.498;2022-08-05T07:33:26;101793.44;;;18.54;67.50
69784;BME280;57054;51.978;4.498;2022-08-05T07:35:51;101800.34;;;18.57;67.65
69784;BME280;57054;51.978;4.498;2022-08-05T07:38:17;101807.38;;;18.58;67.69
69784;BME280;57054;51.978;4.498;2022-08-05T07:40:42;101810.78;;;18.60;68.56
69784;BME280;57054;51.978;4.498;2022-08-05T07:43:08;101807.19;;;18.61;68.25
69784;BME280;57054;51.978;4.498;2022-08-05T07:45:34;101810.69;;;18.61;68.16
69784;BME280;57054;51.978;4.498;2022-08-05T07:47:59;101808.81;;;18.64;68.04
69784;BME280;57054;51.978;4.498;2022-08-05T07:50:25;101819.31;;;18.65;67.64
69784;BME280;57054;51.978;4.498;2022-08-05T07:52:50;101824.56;;;18.67;67.23
69784;BME280;57054;51.978;4.498;2022-08-05T07:55:15;101827.97;;;18.69;67.40
69784;BME280;57054;51.978;4.498;2022-08-05T07:57:41;101829.78;;;18.68;67.01
69784;BME280;57054;51.978;4.498;2022-08-05T08:00:07;101836.84;;;18.68;66.34
69784;BME280;57054;51.978;4.498;2022-08-05T08:02:32;101839.50;;;18.68;66.30
69784;BME280;57054;51.978;4.498;2022-08-05T08:05:00;101845.69;;;18.68;65.98
69784;BME280;57054;51.978;4.498;2022-08-05T08:07:25;101857.16;;;18.69;66.28
69784;BME280;57054;51.978;4.498;2022-08-05T08:09:51;101858.00;;;18.69;66.27
69784;BME280;57054;51.978;4.498;2022-08-05T08:12:17;101863.28;;;18.69;66.35
69784;BME280;57054;51.978;4.498;2022-08-05T08:14:44;101868.59;;;18.69;66.47
69784;BME280;57054;51.978;4.498;2022-08-05T08:17:09;101868.69;;;18.68;66.46
69784;BME280;57054;51.978;4.498;2022-08-05T08:19:36;101866.91;;;18.68;66.39
69784;BME280;57054;51.978;4.498;2022-08-05T08:22:02;101870.50;;;18.67;66.43
69784;BME280;57054;51.978;4.498;2022-08-05T08:24:28;101870.59;;;18.66;66.32
69784;BME280;57054;51.978;4.498;2022-08-05T08:26:54;101875.81;;;18.67;66.89
69784;BME280;57054;51.978;4.498;2022-08-05T08:29:19;101881.19;;;18.66;67.04
69784;BME280;57054;51.978;4.498;2022-08-05T08:31:45;101870.50;;;18.67;67.15
69784;BME280;57054;51.978;4.498;2022-08-05T08:34:10;101885.56;;;18.67;67.02
69784;BME280;57054;51.978;4.498;2022-08-05T08:36:36;101880.25;;;18.67;67.69
69784;BME280;57054;51.978;4.498;2022-08-05T08:39:01;101890.78;;;18.68;67.66
69784;BME280;57054;51.978;4.498;2022-08-05T08:41:29;101889.91;;;18.68;67.81
69784;BME280;57054;51.978;4.498;2022-08-05T08:43:57;101899.59;;;18.69;67.97
69784;BME280;57054;51.978;4.498;2022-08-05T08:46:26;101911.13;;;18.68;67.55
69784;BME280;57054;51.978;4.498;2022-08-05T08:48:53;101905.84;;;18.68;67.02
69784;BME280;57054;51.978;4.498;2022-08-05T08:51:19;101908.56;;;18.66;66.94
69784;BME280;57054;51.978;4.498;2022-08-05T08:53:45;101908.56;;;18.66;67.08
69784;BME280;57054;51.978;4.498;2022-08-05T08:56:10;101914.00;;;18.65;66.59
69784;BME280;57054;51.978;4.498;2022-08-05T08:58:36;101923.72;;;18.64;66.69
69784;BME280;57054;51.978;4.498;2022-08-05T09:01:02;101922.88;;;18.64;66.66
69784;BME280;57054;51.978;4.498;2022-08-05T09:03:27;101926.47;;;18.63;66.70
69784;BME280;57054;51.978;4.498;2022-08-05T09:05:53;101930.84;;;18.64;66.74
69784;BME280;57054;51.978;4.498;2022-08-05T09:08:18;101938.97;;;18.60;65.62
69784;BME280;57054;51.978;4.498;2022-08-05T09:10:44;101946.91;;;18.60;65.89
69784;BME280;57054;51.978;4.498;2022-08-05T09:13:14;101947.88;;;18.59;66.35
69784;BME280;57054;51.978;4.498;2022-08-05T09:15:40;101953.19;;;18.59;65.46
69784;BME280;57054;51.978;4.498;2022-08-05T09:18:07;101950.53;;;18.59;65.36
69784;BME280;57054;51.978;4.498;2022-08-05T09:20:32;101949.66;;;18.59;65.17
69784;BME280;57054;51.978;4.498;2022-08-05T09:23:11;101941.81;;;18.57;64.43
69784;BME280;57054;51.978;4.498;2022-08-05T09:25:42;101945.41;;;18.56;64.55
69784;BME280;57054;51.978;4.498;2022-08-05T09:28:22;101953.28;;;18.58;65.13
69784;BME280;57054;51.978;4.498;2022-08-05T09:31:06;101956.94;;;18.55;64.45
69784;BME280;57054;51.978;4.498;2022-08-05T09:33:46;101957.81;;;18.56;64.55
69784;BME280;57054;51.978;4.498;2022-08-05T09:36:11;101958.75;;;18.55;64.53
69784;BME280;57054;51.978;4.498;2022-08-05T09:38:37;101965.00;;;18.54;64.88
69784;BME280;57054;51.978;4.498;2022-08-05T09:41:07;101968.50;;;18.54;65.32
69784;BME280;57054;51.978;4.498;2022-08-05T09:43:36;101975.63;;;18.54;64.47
69784;BME280;57054;51.978;4.498;2022-08-05T09:46:02;101980.03;;;18.53;64.59
69784;BME280;57054;51.978;4.498;2022-08-05T09:48:31;101980.91;;;18.54;64.25
69784;BME280;57054;51.978;4.498;2022-08-05T09:51:02;101977.59;;;18.50;64.05
69784;BME280;57054;51.978;4.498;2022-08-05T09:53:28;101976.72;;;18.50;64.55
69784;BME280;57054;51.978;4.498;2022-08-05T09:55:57;101982.88;;;18.50;63.96
69784;BME280;57054;51.978;4.498;2022-08-05T09:58:23;101985.63;;;18.49;64.10
69784;BME280;57054;51.978;4.498;2022-08-05T10:00:54;101989.13;;;18.49;64.25
69784;BME280;57054;51.978;4.498;2022-08-05T10:03:21;101995.28;;;18.50;64.33
69784;BME280;57054;51.978;4.498;2022-08-05T10:05:59;101998.81;;;18.50;65.15
69784;BME280;57054;51.978;4.498;2022-08-05T10:08:25;102000.59;;;18.50;64.87
69784;BME280;57054;51.978;4.498;2022-08-05T10:10:50;101995.28;;;18.50;64.24
69784;BME280;57054;51.978;4.498;2022-08-05T10:13:45;102005.03;;;18.49;64.29
69784;BME280;57054;51.978;4.498;2022-08-05T10:16:34;102003.34;;;18.48;63.97
69784;BME280;57054;51.978;4.498;2022-08-05T10:19:00;101998.03;;;18.48;63.68
69784;BME280;57054;51.978;4.498;2022-08-05T10:21:26;101998.88;;;18.49;63.75
69784;BME280;57054;51.978;4.498;2022-08-05T10:23:53;101996.22;;;18.49;63.98
69784;BME280;57054;51.978;4.498;2022-08-05T10:26:19;101998.03;;;18.48;63.63
69784;BME280;57054;51.978;4.498;2022-08-05T10:28:45;102004.13;;;18.50;63.43
69784;BME280;57054;51.978;4.498;2022-08-05T10:31:12;102001.53;;;18.49;62.98
69784;BME280;57054;51.978;4.498;2022-08-05T10:33:38;102002.38;;;18.49;62.82
69784;BME280;57054;51.978;4.498;2022-08-05T10:36:04;102010.34;;;18.49;62.15
69784;BME280;57054;51.978;4.498;2022-08-05T10:38:32;101999.72;;;18.49;62.29
69784;BME280;57054;51.978;4.498;2022-08-05T10:41:22;102011.19;;;18.50;62.74
69784;BME280;57054;51.978;4.498;2022-08-05T10:44:12;102002.38;;;18.49;61.77
69784;BME280;57054;51.978;4.498;2022-08-05T10:46:44;102006.84;;;18.49;61.60
69784;BME280;57054;51.978;4.498;2022-08-05T10:49:10;102007.69;;;18.49;61.01
69784;BME280;57054;51.978;4.498;2022-08-05T10:51:46;102020.03;;;18.50;62.02
69784;BME280;57054;51.978;4.498;2022-08-05T10:54:12;102018.13;;;18.52;62.72
69784;BME280;57054;51.978;4.498;2022-08-05T10:56:45;102018.06;;;18.54;61.69
69784;BME280;57054;51.978;4.498;2022-08-05T10:59:15;102026.03;;;18.54;60.94
69784;BME280;57054;51.978;4.498;2022-08-05T11:01:42;102025.06;;;18.55;60.85
69784;BME280;57054;51.978;4.498;2022-08-05T11:04:12;102027.72;;;18.55;61.07
69784;BME280;57054;51.978;4.498;2022-08-05T11:07:05;102026.78;;;18.56;60.96
69784;BME280;57054;51.978;4.498;2022-08-05T11:09:48;102035.50;;;18.58;61.09
69784;BME280;57054;51.978;4.498;2022-08-05T11:15:04;102043.38;;;18.59;60.47
69784;BME280;57054;51.978;4.498;2022-08-05T11:17:30;102039.78;;;18.60;60.89
69784;BME280;57054;51.978;4.498;2022-08-05T11:19:57;102045.97;;;18.61;61.46
69784;BME280;57054;51.978;4.498;2022-08-05T11:22:46;102046.72;;;18.63;62.99
69784;BME280;57054;51.978;4.498;2022-08-05T11:36:14;102060.59;;;18.68;61.75
69784;BME280;57054;51.978;4.498;2022-08-05T11:43:43;102061.19;;;18.73;64.72
69784;BME280;57054;51.978;4.498;2022-08-05T11:46:08;102067.34;;;18.74;63.52
69784;BME280;57054;51.978;4.498;2022-08-05T11:48:34;102067.25;;;18.75;64.09
69784;BME280;57054;51.978;4.498;2022-08-05T11:51:00;102064.59;;;18.75;63.28
69784;BME280;57054;51.978;4.498;2022-08-05T11:53:26;102072.47;;;18.77;62.48
69784;BME280;57054;51.978;4.498;2022-08-05T11:56:00;102079.38;;;18.81;62.31
69784;BME280;57054;51.978;4.498;2022-08-05T11:58:29;102074.84;;;18.83;61.76
69784;BME280;57054;51.978;4.498;2022-08-05T12:01:06;102080.16;;;18.83;61.14
69784;BME280;57054;51.978;4.498;2022-08-05T12:06:11;102086.75;;;18.92;60.43
69784;BME280;57054;51.978;4.498;2022-08-05T12:08:47;102091.94;;;18.93;58.82
69784;BME280;57054;51.978;4.498;2022-08-05T12:11:21;102081.25;;;18.95;58.76
69784;BME280;57054;51.978;4.498;2022-08-05T12:14:00;102086.47;;;18.96;59.72
69784;BME280;57054;51.978;4.498;2022-08-05T12:16:28;102088.28;;;18.96;56.93
69784;BME280;57054;51.978;4.498;2022-08-05T12:18:55;102097.84;;;18.98;58.85
69784;BME280;57054;51.978;4.498;2022-08-05T12:21:22;102093.50;;;18.97;57.57
69784;BME280;57054;51.978;4.498;2022-08-05T12:24:09;102103.94;;;19.01;56.90
69784;BME280;57054;51.978;4.498;2022-08-05T12:26:39;102101.09;;;19.04;56.44
69784;BME280;57054;51.978;4.498;2022-08-05T12:29:08;102100.25;;;19.03;54.76
69784;BME280;57054;51.978;4.498;2022-08-05T12:31:35;102102.03;;;19.03;55.30
69784;BME280;57054;51.978;4.498;2022-08-05T12:34:06;102108.03;;;19.06;59.50
69784;BME280;57054;51.978;4.498;2022-08-05T12:36:34;102111.47;;;19.08;60.90
69784;BME280;57054;51.978;4.498;2022-08-05T12:39:00;102115.06;;;19.07;61.74
69784;BME280;57054;51.978;4.498;2022-08-05T12:41:31;102117.72;;;19.07;57.94
69784;BME280;57054;51.978;4.498;2022-08-05T12:44:00;102118.56;;;19.08;58.73
69784;BME280;57054;51.978;4.498;2022-08-05T12:46:30;102114.91;;;19.10;59.46
69784;BME280;57054;51.978;4.498;2022-08-05T12:51:30;102124.41;;;19.14;57.95
69784;BME280;57054;51.978;4.498;2022-08-05T12:54:01;102129.63;;;19.16;57.91
69784;BME280;57054;51.978;4.498;2022-08-05T12:56:28;102136.56;;;19.18;59.46
69784;BME280;57054;51.978;4.498;2022-08-05T12:59:22;102126.69;;;19.21;57.63
69784;BME280;57054;51.978;4.498;2022-08-05T13:04:40;102144.06;;;19.26;58.40
69784;BME280;57054;51.978;4.498;2022-08-05T13:07:10;102144.97;;;19.27;59.09
69784;BME280;57054;51.978;4.498;2022-08-05T13:09:41;102135.19;;;19.27;58.55
69784;BME280;57054;51.978;4.498;2022-08-05T13:12:12;102148.38;;;19.29;58.89
69784;BME280;57054;51.978;4.498;2022-08-05T13:14:43;102150.94;;;19.30;58.59
69784;BME280;57054;51.978;4.498;2022-08-05T13:17:22;102149.81;;;19.34;62.19
69784;BME280;57054;51.978;4.498;2022-08-05T13:22:26;102159.69;;;19.32;58.11
69784;BME280;57054;51.978;4.498;2022-08-05T13:24:51;102159.50;;;19.35;60.96
69784;BME280;57054;51.978;4.498;2022-08-05T13:27:31;102165.69;;;19.36;60.29
69784;BME280;57054;51.978;4.498;2022-08-05T13:29:58;102155.91;;;19.36;59.12